createdAt,value
2022-08-26T00:00:19.188Z,40.73
2022-08-26T00:02:46.650Z,40.65
2022-08-26T00:05:13.951Z,40.63
2022-08-26T00:07:41.136Z,41.13
2022-08-26T00:10:12.228Z,40.69
2022-08-26T00:12:40.142Z,41.26
2022-08-26T00:15:07.969Z,41.56
2022-08-26T00:17:35.775Z,41.69
2022-08-26T00:20:04.686Z,41.79
2022-08-26T00:22:31.851Z,42.02
2022-08-26T00:24:59.313Z,42.52
2022-08-26T00:27:26.475Z,42.34
2022-08-26T00:29:55.448Z,41.86
2022-08-26T00:32:24.232Z,41.32
2022-08-26T00:34:53.294Z,41.15
2022-08-26T00:37:20.470Z,41.21
2022-08-26T00:39:47.929Z,41.63
2022-08-26T00:42:15.198Z,41.17
2022-08-26T00:44:43.098Z,41.89
2022-08-26T00:47:22.860Z,41.98
2022-08-26T00:49:51.425Z,41.97
2022-08-26T00:52:20.086Z,42.31
2022-08-26T00:54:50.007Z,42.33
2022-08-26T00:57:17.938Z,42.02
2022-08-26T00:59:49.513Z,42.06
2022-08-26T01:02:19.898Z,42.48
2022-08-26T01:04:55.985Z,42.59
2022-08-26T01:07:24.794Z,42.47
2022-08-26T01:09:52.374Z,42.46
2022-08-26T01:12:22.110Z,42.06
2022-08-26T01:14:49.520Z,41.88
2022-08-26T01:17:16.998Z,41.85
2022-08-26T01:19:45.197Z,41.90
2022-08-26T01:22:14.555Z,41.84
2022-08-26T01:24:42.106Z,41.59
2022-08-26T01:27:10.041Z,41.68
2022-08-26T01:29:38.459Z,42.17
2022-08-26T01:32:08.042Z,42.42
2022-08-26T01:34:36.245Z,42.42
2022-08-26T01:37:07.789Z,42.18
2022-08-26T01:39:40.247Z,41.87
2022-08-26T01:42:10.223Z,41.84
2022-08-26T01:44:41.913Z,42.19
2022-08-26T01:47:09.491Z,41.84
2022-08-26T01:49:36.700Z,42.80
2022-08-26T01:52:05.627Z,42.89
2022-08-26T01:54:33.699Z,42.30
2022-08-26T01:57:01.083Z,43.00
2022-08-26T01:59:29.119Z,43.07
2022-08-26T02:01:56.559Z,43.46
2022-08-26T02:04:26.180Z,42.08
2022-08-26T02:06:53.538Z,42.37
2022-08-26T02:09:20.756Z,42.31
2022-08-26T02:11:48.545Z,42.63
2022-08-26T02:14:16.831Z,42.07
2022-08-26T02:16:44.865Z,41.96
2022-08-26T02:19:17.655Z,42.41
2022-08-26T02:21:45.956Z,42.60
2022-08-26T02:24:20.668Z,42.80
2022-08-26T02:26:48.203Z,42.92
2022-08-26T02:29:19.893Z,43.80
2022-08-26T02:31:48.826Z,43.77
2022-08-26T02:34:19.333Z,43.91
2022-08-26T02:36:46.964Z,44.55
2022-08-26T02:39:19.515Z,44.91
2022-08-26T02:41:49.391Z,43.58
2022-08-26T02:44:16.806Z,43.05
2022-08-26T02:46:46.931Z,43.07
2022-08-26T02:49:15.173Z,43.48
2022-08-26T02:51:43.064Z,43.14
2022-08-26T02:54:10.392Z,43.75
2022-08-26T02:56:37.805Z,43.19
2022-08-26T02:59:05.243Z,43.28
2022-08-26T03:01:33.358Z,42.81
2022-08-26T03:04:01.098Z,42.79
2022-08-26T03:06:28.526Z,42.72
2022-08-26T03:08:55.908Z,42.44
2022-08-26T03:11:23.753Z,42.26
2022-08-26T03:13:52.090Z,42.20
2022-08-26T03:16:19.426Z,42.14
2022-08-26T03:18:47.034Z,42.12
2022-08-26T03:21:20.051Z,41.68
2022-08-26T03:23:47.251Z,41.71
2022-08-26T03:26:14.861Z,42.61
2022-08-26T03:29:02.379Z,42.62
2022-08-26T03:31:30.451Z,42.87
2022-08-26T03:33:59.736Z,43.34
2022-08-26T03:36:27.113Z,42.48
2022-08-26T03:38:54.447Z,42.39
2022-08-26T03:41:21.966Z,42.41
2022-08-26T03:43:50.784Z,42.22
2022-08-26T03:46:18.556Z,42.18
2022-08-26T03:48:46.216Z,42.13
2022-08-26T03:51:14.202Z,41.83
2022-08-26T03:53:46.108Z,41.92
2022-08-26T03:56:13.313Z,42.09
2022-08-26T03:58:42.769Z,42.18
2022-08-26T04:01:11.215Z,41.93
2022-08-26T04:03:57.444Z,41.42
2022-08-26T04:06:34.941Z,41.40
2022-08-26T04:09:05.272Z,41.52
2022-08-26T04:11:34.331Z,41.42
2022-08-26T04:14:03.644Z,41.85
2022-08-26T04:16:31.189Z,42.04
2022-08-26T04:18:58.508Z,42.05
2022-08-26T04:21:26.423Z,42.07
2022-08-26T04:23:54.321Z,41.85
2022-08-26T04:26:22.097Z,41.50
2022-08-26T04:28:50.058Z,41.49
2022-08-26T04:31:18.466Z,41.49
2022-08-26T04:33:47.153Z,41.24
2022-08-26T04:36:17.548Z,41.01
2022-08-26T04:38:47.450Z,40.67
2022-08-26T04:41:14.851Z,40.61
2022-08-26T04:43:44.686Z,40.37
2022-08-26T04:46:13.654Z,39.89
2022-08-26T04:48:41.590Z,39.46
2022-08-26T04:51:09.886Z,39.18
2022-08-26T04:53:37.738Z,38.90
2022-08-26T04:56:05.047Z,38.43
2022-08-26T04:58:32.640Z,38.56
2022-08-26T05:00:59.994Z,38.33
2022-08-26T05:03:30.498Z,37.57
2022-08-26T05:05:58.435Z,37.32
2022-08-26T05:08:25.636Z,36.92
2022-08-26T05:11:12.861Z,36.52
2022-08-26T05:13:42.172Z,36.37
2022-08-26T05:16:11.684Z,36.64
2022-08-26T05:18:39.599Z,36.70
2022-08-26T05:21:07.482Z,36.44
2022-08-26T05:23:35.823Z,35.85
2022-08-26T05:26:06.858Z,36.18
2022-08-26T05:28:35.585Z,36.19
2022-08-26T05:31:11.528Z,36.89
2022-08-26T05:33:41.313Z,36.81
2022-08-26T05:36:09.665Z,36.11
2022-08-26T05:38:38.739Z,35.38
2022-08-26T05:41:14.154Z,35.19
2022-08-26T05:43:44.069Z,34.58
2022-08-26T05:46:11.493Z,33.01
2022-08-26T05:48:38.750Z,31.16
2022-08-26T05:51:11.829Z,31.94
2022-08-26T05:53:40.686Z,33.07
2022-08-26T05:56:11.670Z,32.76
2022-08-26T05:58:39.312Z,34.58
2022-08-26T06:01:07.926Z,33.59
2022-08-26T06:03:38.334Z,31.87
2022-08-26T06:06:06.295Z,33.03
2022-08-26T06:08:34.203Z,33.79
2022-08-26T06:11:04.794Z,35.84
2022-08-26T06:13:32.992Z,35.29
2022-08-26T06:16:06.282Z,35.71
2022-08-26T06:18:36.483Z,33.45
2022-08-26T06:21:13.008Z,33.42
2022-08-26T06:23:59.083Z,32.79
2022-08-26T06:26:26.938Z,33.58
2022-08-26T06:28:55.483Z,32.77
2022-08-26T06:31:24.084Z,34.26
2022-08-26T06:33:51.907Z,36.17
2022-08-26T06:36:20.046Z,33.92
2022-08-26T06:38:48.722Z,34.69
2022-08-26T06:41:16.849Z,35.73
2022-08-26T06:43:44.710Z,34.09
2022-08-26T06:46:13.375Z,33.79
2022-08-26T06:48:40.842Z,34.67
2022-08-26T06:51:09.863Z,33.63
2022-08-26T06:53:37.899Z,33.96
2022-08-26T06:56:09.257Z,33.37
2022-08-26T06:58:37.500Z,33.63
2022-08-26T07:01:11.306Z,33.32
2022-08-26T07:03:39.631Z,33.16
2022-08-26T07:06:07.318Z,32.55
2022-08-26T07:08:34.479Z,34.26
2022-08-26T07:11:06.664Z,32.22
2022-08-26T07:13:37.648Z,29.94
2022-08-26T07:16:06.045Z,31.65
2022-08-26T07:18:34.113Z,30.23
2022-08-26T07:21:07.354Z,29.09
2022-08-26T07:23:35.012Z,29.45
2022-08-26T07:26:09.556Z,29.69
2022-08-26T07:28:37.239Z,28.86
2022-08-26T07:31:05.762Z,29.49
2022-08-26T07:33:39.193Z,28.33
2022-08-26T07:36:06.560Z,29.42
2022-08-26T07:38:34.629Z,29.22
2022-08-26T07:41:02.145Z,29.48
2022-08-26T07:43:29.759Z,29.89
2022-08-26T07:45:57.975Z,28.96
2022-08-26T07:48:25.441Z,29.59
2022-08-26T07:50:54.258Z,28.49
2022-08-26T07:53:24.223Z,29.21
2022-08-26T07:55:51.762Z,28.35
2022-08-26T07:58:19.260Z,29.31
2022-08-26T08:00:46.533Z,29.04
2022-08-26T08:03:15.134Z,29.35
2022-08-26T08:05:42.437Z,28.56
2022-08-26T08:08:26.747Z,29.39
2022-08-26T08:10:56.159Z,30.19
2022-08-26T08:13:23.736Z,29.63
2022-08-26T08:15:51.155Z,29.98
2022-08-26T08:18:20.560Z,30.39
2022-08-26T08:20:54.643Z,30.84
2022-08-26T08:23:26.813Z,30.67
2022-08-26T08:26:08.216Z,30.64
2022-08-26T08:28:36.430Z,31.00
2022-08-26T08:31:03.694Z,30.32
2022-08-26T08:33:32.518Z,31.36
2022-08-26T08:36:01.074Z,31.41
2022-08-26T08:38:28.783Z,31.27
2022-08-26T08:40:55.974Z,30.27
2022-08-26T08:43:26.366Z,30.32
2022-08-26T08:45:56.957Z,30.73
2022-08-26T08:48:29.227Z,29.72
2022-08-26T08:51:16.941Z,31.52
2022-08-26T08:53:46.133Z,29.29
2022-08-26T08:56:23.838Z,29.26
2022-08-26T08:59:10.684Z,30.46
2022-08-26T09:01:57.187Z,30.86
2022-08-26T09:04:26.436Z,29.81
2022-08-26T09:06:54.384Z,29.43
2022-08-26T09:09:29.436Z,28.03
2022-08-26T09:11:58.745Z,28.01
2022-08-26T09:14:25.952Z,29.42
2022-08-26T09:16:56.827Z,29.02
2022-08-26T09:19:33.678Z,29.22
2022-08-26T09:22:01.605Z,28.60
2022-08-26T09:24:32.168Z,29.36
2022-08-26T09:27:01.710Z,28.50
2022-08-26T09:29:30.172Z,26.83
2022-08-26T09:32:21.250Z,28.46
2022-08-26T09:34:58.943Z,28.87
2022-08-26T09:40:18.587Z,28.43
2022-08-26T09:42:48.195Z,27.68
2022-08-26T09:45:17.135Z,27.28
2022-08-26T09:47:47.218Z,28.02
2022-08-26T09:50:29.380Z,29.02
2022-08-26T09:53:09.898Z,28.83
2022-08-26T09:55:42.046Z,27.58
2022-08-26T09:58:12.695Z,27.22
2022-08-26T10:00:43.845Z,26.74
2022-08-26T10:03:12.094Z,27.72
2022-08-26T10:05:43.028Z,27.45
2022-08-26T10:08:23.117Z,28.39
2022-08-26T10:10:53.080Z,28.10
2022-08-26T10:13:23.832Z,27.40
2022-08-26T10:15:54.047Z,26.73
2022-08-26T10:18:27.914Z,25.71
2022-08-26T10:21:02.660Z,27.50
2022-08-26T10:23:31.561Z,27.80
2022-08-26T10:26:16.869Z,27.36
2022-08-26T10:28:50.313Z,26.85
2022-08-26T10:31:20.544Z,25.19
2022-08-26T10:33:58.647Z,26.56
2022-08-26T10:37:13.418Z,25.82
2022-08-26T10:39:53.061Z,24.27
2022-08-26T10:42:28.895Z,24.57
2022-08-26T10:44:58.748Z,24.65
2022-08-26T10:47:31.752Z,24.09
2022-08-26T10:50:03.276Z,23.17
2022-08-26T10:52:47.955Z,23.36
2022-08-26T10:55:35.598Z,23.85
2022-08-26T10:58:11.595Z,22.89
2022-08-26T11:01:13.403Z,23.77
2022-08-26T11:04:04.350Z,22.16
2022-08-26T11:06:31.833Z,23.31
2022-08-26T11:09:01.051Z,23.06
2022-08-26T11:11:40.413Z,22.39
2022-08-26T11:14:08.840Z,24.07
2022-08-26T11:16:52.436Z,21.27
2022-08-26T11:20:00.707Z,22.43
2022-08-26T11:22:34.809Z,21.59
2022-08-26T11:25:14.116Z,22.01
2022-08-26T11:27:41.607Z,21.00
2022-08-26T11:30:24.182Z,21.10
2022-08-26T11:32:53.599Z,22.02
2022-08-26T11:35:20.975Z,23.73
2022-08-26T11:37:48.540Z,21.67
2022-08-26T11:40:17.268Z,21.97
2022-08-26T11:42:52.179Z,22.80
2022-08-26T11:45:22.721Z,22.40
2022-08-26T11:47:51.017Z,23.34
2022-08-26T11:50:20.322Z,20.66
2022-08-26T11:52:55.275Z,22.37
2022-08-26T11:55:23.498Z,20.94
2022-08-26T11:57:52.708Z,20.23
2022-08-26T12:00:22.206Z,20.40
2022-08-26T12:02:50.587Z,20.43
2022-08-26T12:05:24.635Z,21.26
2022-08-26T12:07:54.543Z,22.06
2022-08-26T12:10:30.099Z,21.46
2022-08-26T12:12:58.753Z,20.13
2022-08-26T12:15:26.707Z,19.92
2022-08-26T12:17:56.815Z,21.86
2022-08-26T12:20:54.106Z,22.28
2022-08-26T12:23:25.203Z,21.35
2022-08-26T12:26:02.555Z,22.57
2022-08-26T12:28:31.133Z,21.63
2022-08-26T12:31:02.387Z,20.18
2022-08-26T12:33:29.660Z,20.98
2022-08-26T12:35:57.039Z,20.94
2022-08-26T12:38:25.227Z,21.64
2022-08-26T12:40:52.808Z,21.11
2022-08-26T12:43:36.486Z,20.69
2022-08-26T12:46:06.619Z,20.08
2022-08-26T12:48:36.044Z,19.83
2022-08-26T12:51:03.775Z,19.97
2022-08-26T12:53:32.973Z,20.04
2022-08-26T12:56:02.512Z,21.77
2022-08-26T12:58:33.027Z,20.73
2022-08-26T13:01:06.689Z,21.66
2022-08-26T13:03:34.575Z,19.00
2022-08-26T13:06:15.909Z,19.86
2022-08-26T13:08:44.497Z,20.17
2022-08-26T13:11:13.836Z,19.81
2022-08-26T13:13:41.188Z,21.83
2022-08-26T13:16:08.742Z,21.99
2022-08-26T13:18:36.458Z,20.53
2022-08-26T13:21:13.681Z,20.73
2022-08-26T13:23:42.602Z,20.65
2022-08-26T13:26:09.890Z,20.99
2022-08-26T13:28:37.106Z,21.51
2022-08-26T13:31:05.063Z,22.20
2022-08-26T13:33:32.784Z,20.37
2022-08-26T13:36:00.202Z,20.42
2022-08-26T13:38:33.560Z,22.43
2022-08-26T13:41:02.639Z,19.42
2022-08-26T13:43:30.484Z,20.56
2022-08-26T13:45:57.672Z,19.75
2022-08-26T13:48:25.587Z,20.70
2022-08-26T13:50:53.875Z,21.14
2022-08-26T13:53:21.194Z,20.69
2022-08-26T13:55:49.260Z,21.74
2022-08-26T13:58:17.286Z,20.85
2022-08-26T14:00:44.537Z,20.83
2022-08-26T14:03:13.525Z,21.18
2022-08-26T14:05:41.010Z,20.47
2022-08-26T14:08:08.413Z,21.15
2022-08-26T14:10:36.134Z,21.45
2022-08-26T14:13:03.527Z,20.64
2022-08-26T14:15:35.926Z,20.26
2022-08-26T14:18:04.068Z,18.66
2022-08-26T14:20:31.493Z,20.65
2022-08-26T14:23:13.724Z,21.69
2022-08-26T14:25:42.214Z,22.53
2022-08-26T14:28:09.390Z,21.77
2022-08-26T14:30:37.128Z,23.23
2022-08-26T14:33:04.940Z,22.46
2022-08-26T14:35:32.191Z,21.14
2022-08-26T14:37:59.366Z,20.58
2022-08-26T14:40:28.165Z,21.47
2022-08-26T14:42:55.414Z,21.48
2022-08-26T14:45:27.103Z,22.88
2022-08-26T14:47:56.557Z,22.12
2022-08-26T14:50:24.510Z,22.42
2022-08-26T14:53:10.663Z,21.85
2022-08-26T14:55:39.175Z,22.67
2022-08-26T14:58:06.729Z,22.59
2022-08-26T15:00:33.906Z,23.36
2022-08-26T15:03:01.228Z,23.08
2022-08-26T15:05:29.782Z,23.62
2022-08-26T15:07:56.978Z,22.05
2022-08-26T15:10:24.200Z,22.72
2022-08-26T15:12:51.689Z,22.36
2022-08-26T15:15:19.083Z,23.56
2022-08-26T15:17:46.292Z,24.37
2022-08-26T15:20:16.805Z,21.46
2022-08-26T15:22:44.732Z,21.63
2022-08-26T15:25:12.207Z,22.22
2022-08-26T15:27:39.707Z,23.79
2022-08-26T15:30:13.512Z,23.20
2022-08-26T15:32:41.026Z,23.51
2022-08-26T15:35:09.380Z,25.46
2022-08-26T15:37:36.736Z,24.74
2022-08-26T15:40:04.838Z,25.00
2022-08-26T15:42:32.166Z,24.43
2022-08-26T15:44:59.691Z,25.11
2022-08-26T15:47:27.158Z,24.30
2022-08-26T15:49:55.705Z,24.65
2022-08-26T15:52:22.937Z,24.69
2022-08-26T15:54:50.457Z,23.42
2022-08-26T15:57:19.737Z,23.42
2022-08-26T15:59:47.457Z,23.85
2022-08-26T16:02:15.026Z,24.66
2022-08-26T16:04:42.782Z,24.71
2022-08-26T16:07:10.840Z,24.73
2022-08-26T16:09:38.225Z,24.79
2022-08-26T16:12:05.990Z,24.63
2022-08-26T16:14:33.210Z,25.48
2022-08-26T16:17:00.421Z,26.12
2022-08-26T16:19:28.147Z,25.84
2022-08-26T16:21:55.401Z,25.21
2022-08-26T16:24:27.135Z,25.85
2022-08-26T16:26:57.601Z,24.09
2022-08-26T16:29:24.790Z,23.91
2022-08-26T16:31:53.366Z,24.85
2022-08-26T16:34:21.307Z,24.08
2022-08-26T16:36:48.491Z,23.78
2022-08-26T16:39:15.661Z,24.21
2022-08-26T16:41:44.268Z,24.02
2022-08-26T16:44:12.045Z,24.23
2022-08-26T16:46:39.650Z,24.03
2022-08-26T16:49:07.386Z,24.20
2022-08-26T16:51:37.678Z,24.59
2022-08-26T16:54:05.715Z,24.57
2022-08-26T16:56:34.743Z,25.00
2022-08-26T16:59:02.816Z,25.01
2022-08-26T17:01:30.106Z,24.93
2022-08-26T17:03:57.632Z,25.83
2022-08-26T17:06:24.838Z,26.11
2022-08-26T17:08:52.515Z,26.09
2022-08-26T17:11:19.988Z,26.40
2022-08-26T17:13:48.170Z,26.27
2022-08-26T17:16:15.662Z,26.26
2022-08-26T17:18:43.261Z,26.43
2022-08-26T17:21:11.104Z,25.96
2022-08-26T17:23:38.735Z,26.44
2022-08-26T17:26:06.336Z,26.57
2022-08-26T17:28:33.825Z,26.55
2022-08-26T17:31:01.293Z,26.46
2022-08-26T17:33:28.753Z,26.71
2022-08-26T17:35:55.962Z,27.22
2022-08-26T17:38:23.242Z,27.08
2022-08-26T17:40:51.026Z,27.50
2022-08-26T17:43:18.383Z,27.98
2022-08-26T17:45:45.601Z,28.04
2022-08-26T17:48:13.200Z,28.45
2022-08-26T17:50:41.259Z,28.47
2022-08-26T17:53:08.775Z,28.79
2022-08-26T17:58:31.999Z,29.13
2022-08-26T18:01:02.075Z,29.08
2022-08-26T18:03:29.753Z,29.55
2022-08-26T18:05:57.446Z,29.58
2022-08-26T18:08:24.692Z,30.21
2022-08-26T18:10:52.177Z,29.82
2022-08-26T18:13:19.367Z,29.76
2022-08-26T18:15:46.745Z,29.56
2022-08-26T18:18:14.573Z,29.59
2022-08-26T18:20:42.464Z,29.78
2022-08-26T18:23:09.891Z,29.86
2022-08-26T18:25:41.481Z,29.75
2022-08-26T18:28:08.742Z,29.78
2022-08-26T18:30:35.974Z,29.79
2022-08-26T18:33:03.557Z,30.09
2022-08-26T18:35:30.756Z,30.06
2022-08-26T18:37:58.271Z,30.06
2022-08-26T18:40:29.535Z,30.23
2022-08-26T18:42:56.858Z,29.82
2022-08-26T18:45:24.413Z,29.93
2022-08-26T18:47:51.895Z,30.07
2022-08-26T18:50:19.362Z,29.74
2022-08-26T18:52:46.612Z,29.93
2022-08-26T18:55:14.288Z,30.19
2022-08-26T18:57:41.543Z,29.94
2022-08-26T19:00:10.074Z,30.21
2022-08-26T19:02:38.457Z,30.43
2022-08-26T19:05:06.881Z,30.15
2022-08-26T19:07:38.984Z,30.08
2022-08-26T19:10:07.339Z,29.89
2022-08-26T19:12:35.548Z,30.07
2022-08-26T19:15:03.085Z,30.22
2022-08-26T19:17:31.086Z,31.26
2022-08-26T19:19:58.630Z,30.78
2022-08-26T19:22:26.666Z,30.88
2022-08-26T19:24:54.470Z,31.48
2022-08-26T19:27:21.956Z,31.20
2022-08-26T19:29:49.553Z,31.63
2022-08-26T19:32:17.949Z,31.97
2022-08-26T19:34:45.430Z,32.54
2022-08-26T19:37:12.878Z,32.73
2022-08-26T19:39:40.368Z,32.58
2022-08-26T19:42:07.556Z,32.36
2022-08-26T19:44:53.404Z,32.55
2022-08-26T19:47:20.898Z,32.06
2022-08-26T19:49:48.398Z,32.08
2022-08-26T19:52:15.665Z,31.96
2022-08-26T19:54:44.486Z,31.91
2022-08-26T19:57:11.895Z,32.74
2022-08-26T19:59:40.796Z,32.29
2022-08-26T20:02:11.148Z,31.93
2022-08-26T20:04:39.286Z,32.11
2022-08-26T20:07:06.475Z,31.74
2022-08-26T20:09:34.335Z,31.60
2022-08-26T20:12:16.181Z,31.92
2022-08-26T20:14:46.323Z,31.64
2022-08-26T20:17:14.723Z,31.20
2022-08-26T20:20:01.612Z,31.92
2022-08-26T20:22:30.679Z,31.72
2022-08-26T20:24:58.497Z,31.61
2022-08-26T20:27:34.700Z,31.38
2022-08-26T20:30:13.399Z,31.15
2022-08-26T20:32:41.474Z,31.22
2022-08-26T20:35:11.222Z,31.32
2022-08-26T20:37:39.063Z,31.28
2022-08-26T20:40:12.567Z,31.38
2022-08-26T20:42:39.810Z,31.39
2022-08-26T20:45:07.359Z,31.84
2022-08-26T20:47:36.585Z,32.01
2022-08-26T20:50:04.003Z,31.90
2022-08-26T20:52:31.206Z,31.80
2022-08-26T20:54:58.672Z,31.56
2022-08-26T20:57:25.933Z,31.44
2022-08-26T20:59:53.158Z,31.22
2022-08-26T21:02:24.321Z,30.89
2022-08-26T21:04:51.590Z,31.03
2022-08-26T21:07:20.835Z,31.00
2022-08-26T21:09:51.179Z,30.57
2022-08-26T21:12:21.465Z,30.79
2022-08-26T21:14:49.801Z,30.63
2022-08-26T21:17:17.403Z,30.45
2022-08-26T21:19:44.622Z,30.52
2022-08-26T21:22:14.914Z,30.29
2022-08-26T21:24:44.956Z,30.22
2022-08-26T21:27:13.847Z,30.39
2022-08-26T21:29:47.065Z,29.86
2022-08-26T21:32:16.309Z,29.66
2022-08-26T21:34:46.730Z,29.72
2022-08-26T21:37:16.804Z,29.92
2022-08-26T21:39:44.511Z,29.95
2022-08-26T21:42:12.002Z,30.10
2022-08-26T21:44:39.219Z,30.34
2022-08-26T21:47:09.413Z,29.97
2022-08-26T21:49:39.820Z,30.09
2022-08-26T21:52:07.051Z,29.42
2022-08-26T21:54:34.284Z,29.98
2022-08-26T21:57:01.839Z,30.13
2022-08-26T21:59:29.038Z,30.03
2022-08-26T22:01:56.919Z,30.04
2022-08-26T22:04:24.745Z,30.26
2022-08-26T22:06:52.747Z,29.85
2022-08-26T22:09:21.366Z,29.24
2022-08-26T22:11:49.842Z,29.52
2022-08-26T22:14:18.923Z,29.88
2022-08-26T22:16:50.559Z,29.66
2022-08-26T22:19:23.643Z,29.83
2022-08-26T22:21:54.145Z,29.33
2022-08-26T22:24:22.531Z,29.70
2022-08-26T22:26:53.071Z,29.72
2022-08-26T22:29:20.481Z,29.75
2022-08-26T22:31:51.620Z,29.28
2022-08-26T22:34:23.227Z,29.30
2022-08-26T22:36:50.829Z,29.22
2022-08-26T22:39:19.650Z,29.04
2022-08-26T22:41:48.688Z,29.16
2022-08-26T22:44:16.871Z,29.09
2022-08-26T22:46:45.158Z,28.97
2022-08-26T22:49:15.754Z,29.25
2022-08-26T22:51:43.763Z,28.97
2022-08-26T22:54:11.000Z,29.17
2022-08-26T22:56:38.258Z,28.92
2022-08-26T22:59:06.806Z,29.04
2022-08-26T23:01:35.716Z,29.00
2022-08-26T23:04:03.539Z,29.12
2022-08-26T23:06:31.017Z,29.29
2022-08-26T23:08:58.246Z,29.43
2022-08-26T23:11:25.430Z,29.20
2022-08-26T23:13:52.922Z,29.22
2022-08-26T23:16:20.241Z,29.12
2022-08-26T23:18:47.482Z,29.08
2022-08-26T23:21:15.248Z,29.16
2022-08-26T23:23:42.485Z,29.66
2022-08-26T23:26:09.973Z,29.58
2022-08-26T23:28:37.991Z,29.42
2022-08-26T23:31:05.313Z,29.58
2022-08-26T23:33:51.106Z,29.56
2022-08-26T23:36:22.762Z,29.36
2022-08-26T23:38:52.682Z,29.35
2022-08-26T23:41:24.492Z,29.65
2022-08-26T23:43:51.710Z,29.88
2022-08-26T23:46:19.254Z,29.57
2022-08-26T23:48:46.890Z,29.62
2022-08-26T23:51:32.979Z,29.32
2022-08-26T23:54:00.506Z,29.27
2022-08-26T23:56:28.699Z,30.06
2022-08-26T23:58:56.090Z,29.77
